Time;durP1;ratioP1;P1;durP2;ratioP2;P2;SDS_P1;SDS_P2;PMS_P1;PMS_P2;Temp;Humidity;BMP_temperature;BMP_pressure;BME280_temperature;BME280_humidity;BME280_pressure;Samples;Min_cycle;Max_cycle;Signal;HPM_P1;HPM_P2
2023/06/21 00:00:15;;;;;;;31.20;28.70;;;18.30;99.90;;;;;;6162704;23;20043;-82
2023/06/21 00:02:43;;;;;;;34.53;31.38;;;18.30;99.90;;;;;;6162330;23;20012;-83
2023/06/21 00:05:10;;;;;;;40.03;34.80;;;18.30;99.90;;;;;;6162506;23;20516;-83
2023/06/21 00:07:38;;;;;;;33.10;30.30;;;18.20;99.90;;;;;;6212299;23;20020;-83
2023/06/21 00:10:07;;;;;;;35.85;32.42;;;18.20;99.90;;;;;;6162144;23;20091;-82
2023/06/21 00:12:33;;;;;;;50.05;39.70;;;18.20;99.90;;;;;;6212147;23;20092;-83
2023/06/21 00:14:59;;;;;;;33.05;29.95;;;18.20;99.90;;;;;;6211929;23;20143;-83
2023/06/21 00:17:25;;;;;;;52.00;42.03;;;18.20;99.90;;;;;;6162268;23;20047;-83
2023/06/21 00:19:53;;;;;;;49.65;43.40;;;18.10;99.90;;;;;;6162541;23;20016;-82
2023/06/21 00:22:21;;;;;;;39.58;35.78;;;18.10;99.90;;;;;;6212249;23;20008;-82
2023/06/21 00:24:48;;;;;;;43.40;38.97;;;18.10;99.90;;;;;;6161939;23;20132;-83
2023/06/21 00:27:14;;;;;;;35.80;32.40;;;18.00;99.90;;;;;;6212110;23;20017;-83
2023/06/21 00:29:40;;;;;;;42.17;38.33;;;18.00;99.90;;;;;;6162223;23;20009;-83
2023/06/21 00:32:06;;;;;;;36.28;33.13;;;17.90;99.90;;;;;;6162531;23;20055;-83
2023/06/21 00:34:31;;;;;;;39.70;36.10;;;17.90;99.90;;;;;;6162005;23;20453;-83
2023/06/21 00:36:57;;;;;;;41.90;38.10;;;17.90;99.90;;;;;;6162066;23;20008;-83
2023/06/21 00:39:23;;;;;;;49.40;44.22;;;17.90;99.90;;;;;;6212380;23;20463;-83
2023/06/21 00:41:48;;;;;;;44.30;40.30;;;17.80;99.90;;;;;;6163108;23;20060;-82
2023/06/21 00:44:14;;;;;;;43.75;39.67;;;17.80;99.90;;;;;;6163905;23;20400;-83
2023/06/21 00:46:40;;;;;;;45.00;40.78;;;17.80;99.90;;;;;;6187482;23;20004;-83
2023/06/21 00:49:05;;;;;;;59.75;49.92;;;17.80;99.90;;;;;;6218654;23;20023;-82
2023/06/21 00:51:32;;;;;;;48.63;43.72;;;17.70;99.90;;;;;;6193873;23;20072;-83
2023/06/21 00:53:59;;;;;;;50.67;44.30;;;17.70;99.90;;;;;;6193834;23;20012;-83
2023/06/21 00:56:24;;;;;;;49.17;44.20;;;17.70;99.90;;;;;;6243437;22;20051;-83
2023/06/21 00:58:50;;;;;;;49.95;45.08;;;17.70;99.90;;;;;;6193725;23;20016;-83
2023/06/21 01:01:16;;;;;;;54.65;48.15;;;17.60;99.90;;;;;;6218951;23;20409;-83
2023/06/21 01:03:42;;;;;;;48.25;43.72;;;17.60;99.90;;;;;;6193910;23;20293;-83
2023/06/21 01:06:21;;;;;;;53.10;48.10;;;17.50;99.90;;;;;;6192833;23;20096;-83
2023/06/21 01:08:56;;;;;;;59.95;49.45;;;17.60;99.90;;;;;;6193157;23;20467;-82
2023/06/21 01:11:28;;;;;;;61.83;50.30;;;17.50;99.90;;;;;;6218777;23;20008;-83
2023/06/21 01:14:22;;;;;;;56.38;50.53;;;17.50;99.90;;;;;;6193821;23;20463;-83
2023/06/21 01:16:50;;;;;;;57.10;51.13;;;17.50;99.90;;;;;;6243246;22;20023;-83
2023/06/21 01:19:33;;;;;;;152.30;79.65;;;17.40;99.90;;;;;;6193919;23;20364;-82
2023/06/21 01:22:04;;;;;;;79.47;63.40;;;17.40;99.90;;;;;;6243687;23;20023;-82
2023/06/21 01:24:46;;;;;;;71.53;60.38;;;17.40;99.90;;;;;;6243945;23;20016;-82
2023/06/21 01:27:12;;;;;;;101.63;65.10;;;17.40;99.90;;;;;;6192603;23;20066;-82
2023/06/21 01:29:39;;;;;;;72.03;63.25;;;17.40;99.90;;;;;;6218680;23;20016;-82
2023/06/21 01:32:07;;;;;;;97.47;65.82;;;17.40;99.90;;;;;;6193491;23;20018;-82
2023/06/21 01:34:34;;;;;;;62.78;53.85;;;17.40;99.90;;;;;;6193375;23;20073;-82
2023/06/21 01:37:00;;;;;;;84.68;62.30;;;17.30;99.90;;;;;;6192542;23;20008;-82
2023/06/21 01:39:27;;;;;;;78.68;62.88;;;17.30;99.90;;;;;;6193307;23;20008;-83
2023/06/21 01:41:53;;;;;;;94.80;64.63;;;17.30;99.90;;;;;;6193672;23;20027;-83
2023/06/21 01:44:19;;;;;;;194.50;90.68;;;17.40;99.90;;;;;;6193563;23;20448;-82
2023/06/21 01:46:46;;;;;;;98.32;76.07;;;17.50;99.90;;;;;;6192391;23;20012;-82
2023/06/21 01:49:13;;;;;;;133.25;81.68;;;17.50;99.90;;;;;;6193177;23;20393;-82
2023/06/21 01:51:41;;;;;;;98.38;71.03;;;17.60;99.90;;;;;;6243297;23;20013;-83
2023/06/21 01:54:07;;;;;;;85.78;69.93;;;17.70;99.90;;;;;;6193208;23;20444;-82
2023/06/21 01:56:37;;;;;;;85.97;68.50;;;17.70;99.90;;;;;;6192144;23;20094;-82
2023/06/21 01:59:03;;;;;;;87.47;69.95;;;17.70;99.90;;;;;;6193048;23;20016;-83
2023/06/21 02:01:31;;;;;;;103.28;72.93;;;17.70;99.90;;;;;;6193212;23;20047;-83
2023/06/21 02:04:00;;;;;;;83.55;67.22;;;17.70;99.90;;;;;;6193139;23;20438;-82
2023/06/21 02:06:30;;;;;;;172.45;79.78;;;17.70;99.90;;;;;;6192375;23;20054;-82
2023/06/21 02:09:00;;;;;;;118.88;73.15;;;17.70;99.90;;;;;;6243661;23;20062;-82
2023/06/21 02:11:28;;;;;;;102.90;72.03;;;17.60;99.90;;;;;;6193118;23;20004;-82
2023/06/21 02:13:54;;;;;;;94.60;72.50;;;17.60;99.90;;;;;;6193225;23;20043;-82
2023/06/21 02:16:28;;;;;;;193.13;87.53;;;17.60;99.90;;;;;;6192381;23;20016;-82
2023/06/21 02:18:54;;;;;;;115.47;74.93;;;17.60;99.90;;;;;;6193072;23;20016;-82
2023/06/21 02:21:25;;;;;;;90.50;73.57;;;17.60;99.90;;;;;;6192727;23;20357;-82
2023/06/21 02:23:51;;;;;;;120.78;75.10;;;17.50;99.90;;;;;;6218281;23;20533;-82
2023/06/21 02:26:17;;;;;;;126.60;80.25;;;17.50;99.90;;;;;;6192356;23;20039;-82
2023/06/21 02:28:44;;;;;;;101.82;78.40;;;17.50;99.90;;;;;;6193163;23;20013;-82
2023/06/21 02:31:09;;;;;;;91.00;74.13;;;17.50;99.90;;;;;;6192570;23;20018;-81
2023/06/21 02:33:35;;;;;;;122.22;81.07;;;17.40;99.90;;;;;;6193005;23;20040;-82
2023/06/21 02:36:00;;;;;;;104.28;75.32;;;17.40;99.90;;;;;;6217607;23;20016;-82
2023/06/21 02:38:26;;;;;;;78.60;70.20;;;17.40;99.90;;;;;;6193103;23;20012;-82
2023/06/21 02:40:52;;;;;;;127.60;81.90;;;17.40;99.90;;;;;;6193107;23;20016;-82
2023/06/21 02:43:18;;;;;;;98.90;77.63;;;17.40;99.90;;;;;;6192860;23;20066;-82
2023/06/21 02:45:44;;;;;;;80.80;72.13;;;17.40;99.90;;;;;;6191876;23;20016;-81
2023/06/21 02:48:10;;;;;;;91.80;76.57;;;17.50;99.90;;;;;;6192881;23;20095;-82
2023/06/21 02:50:36;;;;;;;109.43;79.43;;;17.40;99.90;;;;;;6192916;23;20050;-82
2023/06/21 02:53:01;;;;;;;93.13;76.15;;;17.30;99.90;;;;;;6193090;23;20008;-82
2023/06/21 02:55:27;;;;;;;110.47;80.32;;;17.30;99.90;;;;;;6192768;23;20012;-82
2023/06/21 02:57:52;;;;;;;97.20;78.80;;;17.30;99.90;;;;;;6191646;23;20016;-83
2023/06/21 03:00:22;;;;;;;233.32;97.80;;;17.40;99.90;;;;;;6242928;23;20019;-82
2023/06/21 03:02:49;;;;;;;135.20;84.68;;;17.30;99.90;;;;;;6242857;23;20082;-82
2023/06/21 03:05:15;;;;;;;112.70;80.65;;;17.30;99.90;;;;;;6192477;23;20066;-82
2023/06/21 03:07:44;;;;;;;132.82;85.97;;;17.30;99.90;;;;;;6191878;23;20020;-82
2023/06/21 03:10:14;;;;;;;110.60;84.38;;;17.30;99.90;;;;;;6242830;23;20012;-82
2023/06/21 03:12:43;;;;;;;108.00;83.47;;;17.40;99.90;;;;;;6193064;23;20047;-82
2023/06/21 03:15:10;;;;;;;111.47;82.25;;;17.30;99.90;;;;;;6242903;22;20448;-82
2023/06/21 03:17:37;;;;;;;151.70;91.30;;;17.30;99.90;;;;;;6217661;23;20012;-82
2023/06/21 03:20:09;;;;;;;120.97;85.43;;;17.30;99.90;;;;;;6243029;23;20012;-81
2023/06/21 03:22:35;;;;;;;119.05;83.45;;;17.30;99.90;;;;;;6193081;23;20016;-82
2023/06/21 03:25:01;;;;;;;127.00;88.28;;;17.30;99.90;;;;;;6242529;22;20054;-82
2023/06/21 03:27:27;;;;;;;138.02;87.80;;;17.30;99.90;;;;;;6242540;23;20012;-82
2023/06/21 03:29:53;;;;;;;140.93;91.97;;;17.30;99.90;;;;;;6217836;23;20057;-81
2023/06/21 03:32:19;;;;;;;133.07;86.53;;;17.30;99.90;;;;;;6192756;23;20448;-82
2023/06/21 03:34:45;;;;;;;132.45;88.03;;;17.30;99.90;;;;;;6243305;22;20635;-82
2023/06/21 03:37:11;;;;;;;173.98;92.32;;;17.30;99.90;;;;;;6242211;23;20012;-82
2023/06/21 03:39:37;;;;;;;230.30;103.25;;;17.30;99.90;;;;;;6217522;23;20015;-82
2023/06/21 03:42:02;;;;;;;113.07;87.93;;;17.30;99.90;;;;;;6242884;23;20087;-82
2023/06/21 03:44:29;;;;;;;110.45;86.80;;;17.30;99.90;;;;;;6217984;23;20441;-82
2023/06/21 03:46:55;;;;;;;127.60;90.25;;;17.30;99.90;;;;;;6217237;23;20042;-81
2023/06/21 03:49:21;;;;;;;111.30;89.80;;;17.30;99.90;;;;;;6242862;23;20095;-82
2023/06/21 03:51:47;;;;;;;112.63;90.88;;;17.30;99.90;;;;;;6242522;23;20008;-82
2023/06/21 03:54:13;;;;;;;119.60;87.28;;;17.30;99.90;;;;;;6243218;23;20341;-81
2023/06/21 03:56:39;;;;;;;161.68;91.95;;;17.20;99.90;;;;;;6191918;23;20012;-81
2023/06/21 03:59:04;;;;;;;148.45;93.80;;;17.30;99.90;;;;;;6242782;23;20015;-81
2023/06/21 04:01:30;;;;;;;191.25;97.35;;;17.30;99.90;;;;;;6217788;23;20016;-82
2023/06/21 04:03:56;;;;;;;116.60;90.47;;;17.40;99.90;;;;;;6217131;23;20020;-82
2023/06/21 04:06:22;;;;;;;177.23;94.20;;;17.40;99.90;;;;;;6243012;23;20095;-82
2023/06/21 04:08:47;;;;;;;124.90;86.60;;;17.30;99.90;;;;;;6242726;23;20048;-82
2023/06/21 04:11:14;;;;;;;155.10;98.00;;;17.30;99.90;;;;;;6242982;23;20012;-81
2023/06/21 04:13:39;;;;;;;140.80;96.50;;;17.30;99.90;;;;;;6192633;23;20040;-82
2023/06/21 04:16:05;;;;;;;166.30;93.65;;;17.40;99.90;;;;;;6243814;23;20016;-82
2023/06/21 04:18:31;;;;;;;141.32;91.88;;;17.40;99.90;;;;;;6218436;23;20475;-82
2023/06/21 04:20:56;;;;;;;139.20;99.22;;;17.40;99.90;;;;;;6244715;23;20542;-82
2023/06/21 04:23:22;;;;;;;214.13;107.30;;;17.50;99.90;;;;;;6244213;23;20073;-82
2023/06/21 04:25:48;;;;;;;196.73;103.85;;;17.40;99.90;;;;;;6219049;23;20371;-82
2023/06/21 04:28:14;;;;;;;145.95;98.72;;;17.40;99.90;;;;;;6242743;23;20023;-82
2023/06/21 04:30:41;;;;;;;173.20;101.30;;;17.60;99.90;;;;;;6244483;23;20334;-82
2023/06/21 04:33:07;;;;;;;177.75;98.22;;;17.70;99.90;;;;;;6218637;23;20066;-82
2023/06/21 04:35:33;;;;;;;131.07;91.10;;;17.90;99.90;;;;;;6244517;23;20452;-82
2023/06/21 04:38:00;;;;;;;175.60;96.10;;;17.90;99.90;;;;;;6244164;23;20266;-82
2023/06/21 04:40:25;;;;;;;148.63;91.32;;;18.00;99.90;;;;;;6244046;23;20009;-82
2023/06/21 04:42:58;;;;;;;138.63;92.30;;;18.00;99.90;;;;;;6218100;23;20008;-82
2023/06/21 04:45:25;;;;;;;152.35;94.85;;;18.00;99.90;;;;;;6219408;23;20011;-84
2023/06/21 04:47:52;;;;;;;172.80;98.50;;;18.00;99.90;;;;;;6244134;23;20019;-85
2023/06/21 04:50:19;;;;;;;153.05;96.47;;;18.00;99.90;;;;;;6244439;23;20008;-83
2023/06/21 04:52:47;;;;;;;229.70;104.22;;;18.10;99.90;;;;;;6244076;23;20007;-84
2023/06/21 04:55:17;;;;;;;179.98;100.07;;;18.10;99.90;;;;;;6193066;23;20062;-84
2023/06/21 04:57:43;;;;;;;150.85;94.40;;;18.40;99.90;;;;;;6218058;23;20436;-85
2023/06/21 05:00:10;;;;;;;124.97;88.82;;;18.40;99.90;;;;;;6244259;23;20043;-84
2023/06/21 05:02:35;;;;;;;137.93;88.82;;;18.60;99.90;;;;;;6192266;23;20340;-84
2023/06/21 05:05:01;;;;;;;142.70;84.65;;;18.90;99.90;;;;;;6216828;23;20004;-84
2023/06/21 05:07:26;;;;;;;165.32;85.97;;;19.10;99.90;;;;;;6218661;23;20012;-84
2023/06/21 05:09:52;;;;;;;122.95;80.47;;;19.10;99.90;;;;;;6244245;23;20055;-84
2023/06/21 05:12:17;;;;;;;143.63;88.32;;;19.10;99.90;;;;;;6218421;23;20083;-84
2023/06/21 05:14:43;;;;;;;96.10;79.70;;;19.00;99.90;;;;;;6218068;23;20008;-84
2023/06/21 05:17:11;;;;;;;107.68;81.43;;;18.90;99.90;;;;;;6217973;23;20004;-84
2023/06/21 05:19:36;;;;;;;84.97;75.75;;;19.10;99.90;;;;;;6243926;23;20428;-84
2023/06/21 05:22:02;;;;;;;87.35;74.25;;;19.30;99.90;;;;;;6218187;23;20078;-83
2023/06/21 05:24:28;;;;;;;93.88;72.95;;;19.50;99.90;;;;;;6218784;23;20008;-85
2023/06/21 05:26:53;;;;;;;113.60;72.97;;;19.80;99.90;;;;;;6215637;23;20047;-85
2023/06/21 05:29:19;;;;;;;81.38;67.30;;;19.90;99.90;;;;;;6241600;23;20050;-85
2023/06/21 05:31:44;;;;;;;79.20;69.25;;;20.00;99.90;;;;;;6243387;23;20078;-84
2023/06/21 05:34:10;;;;;;;111.15;70.72;;;20.10;99.90;;;;;;6217924;23;20012;-85
2023/06/21 05:36:36;;;;;;;71.93;64.30;;;20.20;99.90;;;;;;6242962;23;20456;-85
2023/06/21 05:39:03;;;;;;;74.18;63.72;;;20.20;99.90;;;;;;6192835;23;20015;-85
2023/06/21 05:41:29;;;;;;;64.43;58.40;;;20.20;99.90;;;;;;6243207;23;20020;-84
2023/06/21 05:43:54;;;;;;;67.40;60.33;;;20.40;99.90;;;;;;6243675;23;20011;-84
2023/06/21 05:46:20;;;;;;;66.95;60.03;;;20.40;99.90;;;;;;6243196;23;20034;-84
2023/06/21 05:48:45;;;;;;;67.13;60.38;;;20.70;99.90;;;;;;6243223;23;20023;-84
2023/06/21 05:51:11;;;;;;;70.75;58.72;;;21.00;99.90;;;;;;6242826;23;20520;-84
2023/06/21 05:53:36;;;;;;;58.90;53.28;;;21.10;99.90;;;;;;6217949;23;20095;-83
2023/06/21 05:56:02;;;;;;;59.35;53.65;;;21.10;99.90;;;;;;6217895;23;20039;-86
2023/06/21 05:58:28;;;;;;;56.72;51.50;;;21.10;99.90;;;;;;6217248;23;20445;-82
2023/06/21 06:00:54;;;;;;;56.17;51.03;;;21.20;99.90;;;;;;6216181;23;20016;-84
2023/06/21 06:03:19;;;;;;;54.42;49.25;;;21.20;99.90;;;;;;6241584;23;20023;-85
2023/06/21 06:05:46;;;;;;;54.58;49.28;;;21.20;99.90;;;;;;6242377;23;20507;-85
2023/06/21 06:08:11;;;;;;;56.20;50.63;;;21.10;99.90;;;;;;6243405;23;20008;-85
2023/06/21 06:10:37;;;;;;;53.75;48.60;;;21.10;99.90;;;;;;6242110;23;20387;-84
2023/06/21 06:13:03;;;;;;;57.53;51.80;;;21.00;99.90;;;;;;6242843;23;20004;-84
2023/06/21 06:15:29;;;;;;;56.75;50.95;;;21.00;99.90;;;;;;6242287;23;20048;-84
2023/06/21 06:17:54;;;;;;;54.63;49.33;;;20.90;99.90;;;;;;6242905;23;20051;-85
2023/06/21 06:20:20;;;;;;;47.13;42.80;;;20.90;99.90;;;;;;6243383;23;20340;-85
2023/06/21 06:22:47;;;;;;;47.38;42.75;;;20.90;99.90;;;;;;6242255;23;20016;-86
2023/06/21 06:25:12;;;;;;;48.22;43.65;;;20.80;99.90;;;;;;6243015;23;20367;-83
2023/06/21 06:27:38;;;;;;;47.92;43.17;;;20.70;99.90;;;;;;6242368;23;20086;-86
2023/06/21 06:30:05;;;;;;;45.20;40.92;;;20.60;99.90;;;;;;6243347;23;20012;-86
2023/06/21 06:32:30;;;;;;;46.92;42.35;;;20.60;99.90;;;;;;6242588;23;20012;-85
2023/06/21 06:34:56;;;;;;;47.63;42.95;;;20.60;99.90;;;;;;6217266;23;20516;-85
2023/06/21 06:37:24;;;;;;;56.65;49.50;;;20.60;99.90;;;;;;6243282;23;20143;-86
2023/06/21 06:39:51;;;;;;;46.72;42.20;;;20.50;99.90;;;;;;6243473;23;20019;-85
2023/06/21 06:42:17;;;;;;;41.80;38.05;;;20.60;99.90;;;;;;6242730;23;20015;-85
2023/06/21 06:44:43;;;;;;;39.55;35.95;;;20.70;99.90;;;;;;6242552;23;20452;-85
2023/06/21 06:47:09;;;;;;;42.22;38.20;;;20.70;99.90;;;;;;6237742;23;20033;-85
2023/06/21 06:49:34;;;;;;;40.55;36.88;;;20.60;99.90;;;;;;6238527;23;20009;-85
2023/06/21 06:52:00;;;;;;;41.75;37.90;;;20.70;99.90;;;;;;6238231;23;20009;-87
2023/06/21 06:54:29;;;;;;;39.13;35.63;;;20.70;99.90;;;;;;6237769;23;20009;-86
2023/06/21 06:56:55;;;;;;;43.83;39.60;;;20.80;99.90;;;;;;6186140;23;20519;-87
2023/06/21 06:59:21;;;;;;;41.35;37.20;;;20.90;99.90;;;;;;6237860;23;20051;-87
2023/06/21 07:01:47;;;;;;;38.58;35.17;;;21.00;99.90;;;;;;6187377;23;20024;-87
2023/06/21 07:04:12;;;;;;;39.53;36.00;;;21.10;99.90;;;;;;6188016;23;20020;-87
2023/06/21 07:06:38;;;;;;;38.50;34.90;;;21.20;99.90;;;;;;6237636;22;20012;-87
2023/06/21 07:09:04;;;;;;;35.92;32.72;;;21.40;99.90;;;;;;6237884;23;20021;-84
2023/06/21 07:11:29;;;;;;;37.28;33.75;;;21.40;99.90;;;;;;6187447;23;20051;-84
2023/06/21 07:13:55;;;;;;;36.70;33.35;;;21.50;99.90;;;;;;6238472;23;20009;-84
2023/06/21 07:16:20;;;;;;;38.70;34.78;;;21.50;99.90;;;;;;6238608;22;20460;-84
2023/06/21 07:18:46;;;;;;;35.05;31.95;;;21.50;99.90;;;;;;6187778;23;20098;-83
2023/06/21 07:21:13;;;;;;;32.20;29.50;;;21.50;99.90;;;;;;6188146;23;20100;-85
2023/06/21 07:23:39;;;;;;;31.63;28.73;;;21.50;99.90;;;;;;6238155;23;20417;-86
2023/06/21 07:26:04;;;;;;;33.58;30.63;;;21.60;99.90;;;;;;6237562;22;20091;-85
2023/06/21 07:28:30;;;;;;;25.95;23.85;;;21.70;99.90;;;;;;6186922;23;20005;-84
2023/06/21 07:30:55;;;;;;;31.58;28.80;;;21.70;99.90;;;;;;6187652;23;20088;-85
2023/06/21 07:33:21;;;;;;;31.63;29.05;;;21.80;99.90;;;;;;6187482;23;20268;-85
2023/06/21 07:35:47;;;;;;;31.05;28.33;;;22.00;99.90;;;;;;6187094;23;20566;-85
2023/06/21 07:38:13;;;;;;;27.73;25.38;;;22.10;99.90;;;;;;6236680;23;20021;-83
2023/06/21 07:40:39;;;;;;;30.20;27.75;;;22.10;99.90;;;;;;6237582;23;20009;-84
2023/06/21 07:43:05;;;;;;;31.05;28.50;;;22.30;99.90;;;;;;6187224;23;20394;-83
2023/06/21 07:45:31;;;;;;;25.55;23.48;;;22.60;99.90;;;;;;6236844;22;20084;-83
2023/06/21 07:47:56;;;;;;;26.30;24.10;;;22.90;99.90;;;;;;6237467;23;20012;-83
2023/06/21 07:50:25;;;;;;;23.48;21.67;;;23.50;99.90;;;;;;6238256;23;20008;-83
2023/06/21 07:52:51;;;;;;;24.05;22.10;;;23.90;99.90;;;;;;6239274;23;20036;-85
2023/06/21 07:55:16;;;;;;;21.65;19.95;;;24.30;99.90;;;;;;6189376;23;20079;-86
2023/06/21 07:57:43;;;;;;;21.20;19.40;;;25.00;99.90;;;;;;6189147;23;20019;-85
2023/06/21 08:00:11;;;;;;;21.60;19.90;;;25.60;99.90;;;;;;6239651;23;20088;-85
2023/06/21 08:02:37;;;;;;;21.55;19.75;;;26.00;99.90;;;;;;6239326;23;20349;-86
2023/06/21 08:05:04;;;;;;;19.50;17.90;;;26.30;99.90;;;;;;6239558;23;20087;-86
2023/06/21 08:07:30;;;;;;;17.90;16.33;;;26.50;99.90;;;;;;6189311;23;20317;-85
2023/06/21 08:09:55;;;;;;;16.95;15.65;;;26.30;99.90;;;;;;6189461;23;20015;-85
2023/06/21 08:12:21;;;;;;;18.92;17.33;;;26.60;99.90;;;;;;6239414;23;20067;-85
2023/06/21 08:14:46;;;;;;;17.77;16.27;;;27.00;99.90;;;;;;6239308;23;20008;-85
2023/06/21 08:17:12;;;;;;;17.60;16.20;;;27.30;99.90;;;;;;6239316;23;20015;-85
2023/06/21 08:19:38;;;;;;;17.35;15.95;;;27.10;99.90;;;;;;6239685;23;20013;-85
2023/06/21 08:22:04;;;;;;;17.85;16.45;;;27.30;99.90;;;;;;6239542;23;20009;-85
2023/06/21 08:24:29;;;;;;;16.70;15.32;;;27.60;99.90;;;;;;6239605;23;20004;-86
2023/06/21 08:26:55;;;;;;;14.75;13.48;;;27.40;99.90;;;;;;6238776;22;20009;-85
2023/06/21 08:29:20;;;;;;;14.85;13.60;;;27.30;99.90;;;;;;6239460;23;20456;-84
2023/06/21 08:31:46;;;;;;;16.50;15.13;;;27.60;99.90;;;;;;6239462;23;20013;-84
2023/06/21 08:34:12;;;;;;;13.27;12.27;;;27.60;99.90;;;;;;6239413;23;20012;-84
2023/06/21 08:36:38;;;;;;;15.50;14.30;;;27.70;99.90;;;;;;6239229;22;20008;-85
2023/06/21 08:39:04;;;;;;;15.38;14.00;;;27.60;99.90;;;;;;6239509;23;20522;-85
2023/06/21 08:41:30;;;;;;;12.02;11.02;;;27.50;99.90;;;;;;6188714;23;20008;-85
2023/06/21 08:43:56;;;;;;;12.35;11.35;;;27.80;99.90;;;;;;6239577;23;20012;-84
2023/06/21 08:46:25;;;;;;;12.80;11.70;;;28.30;99.90;;;;;;6238891;22;20013;-84
2023/06/21 08:48:56;;;;;;;13.02;11.70;;;28.70;99.90;;;;;;6239558;23;20091;-84
2023/06/21 08:51:22;;;;;;;13.15;11.90;;;28.70;99.90;;;;;;6238769;23;20015;-84
2023/06/21 08:54:00;;;;;;;12.30;11.15;;;28.90;99.90;;;;;;6189222;23;20088;-84
2023/06/21 08:56:27;;;;;;;12.10;11.10;;;29.30;99.90;;;;;;6239068;22;20013;-84
2023/06/21 08:59:25;;;;;;;9.95;8.98;;;29.40;99.90;;;;;;6239387;23;20083;-85
2023/06/21 09:02:04;;;;;;;9.60;8.70;;;29.50;99.90;;;;;;6183957;23;20074;-85
2023/06/21 09:04:36;;;;;;;11.38;10.38;;;29.70;99.90;;;;;;6188659;23;20047;-84
2023/06/21 09:07:02;;;;;;;11.50;10.60;;;29.90;99.90;;;;;;6239038;22;20075;-84
2023/06/21 09:09:28;;;;;;;10.20;9.30;;;30.10;99.90;;;;;;6189078;23;20083;-85
2023/06/21 09:11:55;;;;;;;11.90;10.90;;;30.20;98.30;;;;;;6214132;23;20015;-84
2023/06/21 09:14:21;;;;;;;9.13;8.32;;;30.30;99.90;;;;;;6239224;23;20009;-84
2023/06/21 09:16:48;;;;;;;9.27;8.48;;;30.60;99.90;;;;;;6213051;23;20539;-84
2023/06/21 09:19:15;;;;;;;11.40;10.50;;;30.90;99.90;;;;;;6189174;23;20017;-84
2023/06/21 09:21:42;;;;;;;11.38;10.57;;;31.00;99.90;;;;;;6239301;23;20013;-84
2023/06/21 09:24:08;;;;;;;10.75;9.80;;;30.80;98.90;;;;;;6188551;23;20023;-85
2023/06/21 09:26:36;;;;;;;8.52;7.72;;;30.40;99.90;;;;;;6188379;23;20021;-84
2023/06/21 09:29:01;;;;;;;8.70;8.00;;;30.40;99.90;;;;;;6213983;23;20016;-83
2023/06/21 09:31:27;;;;;;;9.40;8.60;;;30.70;99.90;;;;;;6188990;23;20004;-84
2023/06/21 09:33:54;;;;;;;7.97;7.28;;;31.20;99.90;;;;;;6188813;23;20009;-84
2023/06/21 09:36:19;;;;;;;10.38;9.20;;;31.20;95.40;;;;;;6238855;22;20016;-84
2023/06/21 09:38:45;;;;;;;9.80;8.88;;;30.70;90.70;;;;;;6188653;23;20088;-85
2023/06/21 09:41:11;;;;;;;9.23;8.40;;;30.10;95.70;;;;;;6188940;23;20051;-84
2023/06/21 09:43:44;;;;;;;9.52;8.73;;;29.90;96.50;;;;;;6239260;23;20384;-83
2023/06/21 09:46:12;;;;;;;9.25;8.45;;;30.20;99.90;;;;;;6212836;23;20020;-84
2023/06/21 09:48:41;;;;;;;8.30;7.50;;;30.60;99.40;;;;;;6239045;23;20016;-84
2023/06/21 09:51:11;;;;;;;9.02;8.13;;;30.90;93.70;;;;;;6239129;23;20012;-84
2023/06/21 09:53:37;;;;;;;9.77;8.88;;;31.20;97.90;;;;;;6239011;23;20063;-83
2023/06/21 09:56:03;;;;;;;8.98;8.10;;;31.30;90.10;;;;;;6238496;22;20016;-84
2023/06/21 09:58:34;;;;;;;8.65;7.95;;;31.30;92.90;;;;;;6188821;23;20252;-83
2023/06/21 10:01:04;;;;;;;7.93;7.32;;;31.60;76.60;;;;;;6238562;23;20092;-83
2023/06/21 10:03:32;;;;;;;8.20;7.50;;;31.80;79.60;;;;;;6188680;23;20016;-84
2023/06/21 10:05:59;;;;;;;8.73;7.82;;;31.80;77.60;;;;;;6238433;22;20009;-83
2023/06/21 10:08:31;;;;;;;8.95;8.15;;;31.40;74.40;;;;;;6240669;23;20020;-83
2023/06/21 10:10:57;;;;;;;8.68;7.88;;;30.80;74.00;;;;;;6188785;23;20019;-83
2023/06/21 10:13:27;;;;;;;7.78;7.15;;;30.20;79.80;;;;;;6213387;23;20005;-82
2023/06/21 10:15:55;;;;;;;9.55;8.65;;;29.70;82.50;;;;;;6188316;23;20453;-83
2023/06/21 10:18:21;;;;;;;11.57;9.10;;;29.20;88.60;;;;;;6238685;23;20008;-83
2023/06/21 10:20:52;;;;;;;10.77;9.88;;;28.90;97.40;;;;;;6238755;23;20053;-84
2023/06/21 10:23:19;;;;;;;10.30;9.40;;;28.80;97.50;;;;;;6239068;23;20012;-83
2023/06/21 10:25:47;;;;;;;11.27;10.20;;;29.00;97.70;;;;;;6213322;23;20044;-83
2023/06/21 10:28:16;;;;;;;10.45;9.50;;;29.20;95.30;;;;;;6237483;23;20008;-83
2023/06/21 10:30:44;;;;;;;10.18;9.25;;;29.10;97.20;;;;;;6187984;23;20115;-84
2023/06/21 10:33:10;;;;;;;9.60;8.70;;;28.80;98.90;;;;;;6212563;23;20048;-83
2023/06/21 10:35:42;;;;;;;9.98;9.10;;;28.90;99.90;;;;;;6237484;22;20024;-80
2023/06/21 10:38:22;;;;;;;10.70;9.80;;;29.50;99.90;;;;;;6188123;23;20311;-80
2023/06/21 10:40:50;;;;;;;9.23;8.32;;;30.30;98.60;;;;;;6188237;23;20087;-83
2023/06/21 10:43:15;;;;;;;9.57;8.77;;;31.10;95.00;;;;;;6187620;23;20019;-82
2023/06/21 11:09:51;;;;;;;9.07;8.27;;;31.30;71.10;;;;;;6111506;23;20382;-78
2023/06/21 11:22:33;;;;;;;10.43;9.63;;;30.70;69.30;;;;;;6243427;23;20031;-76
2023/06/21 11:25:15;;;;;;;10.98;10.05;;;31.20;71.00;;;;;;6241491;23;20012;-76
2023/06/21 11:27:43;;;;;;;10.18;9.38;;;30.90;70.10;;;;;;6242628;23;20012;-76
2023/06/21 11:30:10;;;;;;;10.70;9.70;;;30.40;71.90;;;;;;6242560;23;20004;-76
2023/06/21 11:32:55;;;;;;;11.10;10.20;;;30.40;74.20;;;;;;6242740;23;20016;-76
2023/06/21 11:35:36;;;;;;;11.60;10.70;;;30.70;74.40;;;;;;6268369;22;20012;-76
2023/06/21 11:38:02;;;;;;;11.23;10.23;;;30.30;71.10;;;;;;6268070;22;20039;-77
2023/06/21 11:40:29;;;;;;;11.00;9.73;;;29.70;71.60;;;;;;6268115;22;20012;-76
2023/06/21 11:42:54;;;;;;;10.63;9.73;;;29.40;79.40;;;;;;6267924;22;20043;-76
2023/06/21 11:45:24;;;;;;;10.70;9.73;;;29.70;88.70;;;;;;6267929;22;20008;-76
2023/06/21 11:48:08;;;;;;;11.60;10.15;;;30.20;74.50;;;;;;6267919;22;20016;-76
2023/06/21 11:50:48;;;;;;;9.30;8.50;;;30.80;76.70;;;;;;6217229;23;20011;-76
2023/06/21 11:53:23;;;;;;;8.88;8.10;;;31.40;74.00;;;;;;6242645;23;20012;-76
2023/06/21 11:55:54;;;;;;;8.70;7.60;;;31.80;70.80;;;;;;6217104;23;20014;-76
2023/06/21 11:58:20;;;;;;;7.85;7.15;;;31.60;68.80;;;;;;6217134;23;20012;-76
2023/06/21 12:00:47;;;;;;;9.23;8.43;;;31.10;67.10;;;;;;6242502;23;20099;-76
2023/06/21 12:03:13;;;;;;;6.68;6.07;;;30.60;68.10;;;;;;6268166;22;20023;-76
2023/06/21 12:05:43;;;;;;;7.38;6.68;;;30.30;71.80;;;;;;6267907;22;20325;-76
2023/06/21 12:08:09;;;;;;;6.85;5.93;;;30.20;72.80;;;;;;6242472;23;20018;-76
2023/06/21 12:10:35;;;;;;;6.18;5.57;;;30.10;73.90;;;;;;6267952;22;20409;-76
2023/06/21 12:13:07;;;;;;;6.10;5.60;;;30.10;76.80;;;;;;6267999;22;20015;-76
2023/06/21 12:15:33;;;;;;;6.75;6.15;;;30.70;75.80;;;;;;6242380;23;20096;-76
2023/06/21 12:17:58;;;;;;;6.68;6.05;;;31.40;77.40;;;;;;6267692;22;20051;-76
2023/06/21 12:20:24;;;;;;;7.13;6.53;;;32.20;68.90;;;;;;6271565;22;20016;-76
2023/06/21 12:22:50;;;;;;;6.55;5.85;;;32.60;66.50;;;;;;6273143;22;20019;-76
2023/06/21 12:25:15;;;;;;;6.22;5.60;;;32.90;66.80;;;;;;6246961;22;20142;-76
2023/06/21 12:27:57;;;;;;;6.18;5.60;;;33.20;64.50;;;;;;6272632;22;20078;-76
2023/06/21 12:30:25;;;;;;;5.78;5.00;;;33.60;63.90;;;;;;6273004;22;20036;-76
2023/06/21 12:32:51;;;;;;;4.88;4.15;;;34.10;63.00;;;;;;6272898;22;20004;-76
2023/06/21 12:35:17;;;;;;;5.53;4.72;;;34.50;58.90;;;;;;6273232;22;20030;-76
2023/06/21 12:37:45;;;;;;;5.63;3.40;;;34.70;59.10;;;;;;6274614;22;20344;-76
2023/06/21 12:40:12;;;;;;;10.48;4.72;;;35.00;60.20;;;;;;6224005;22;20012;-76
2023/06/21 12:42:37;;;;;;;6.75;4.20;;;35.20;57.40;;;;;;6274846;22;20011;-76
2023/06/21 12:45:05;;;;;;;7.15;4.13;;;35.20;58.70;;;;;;6274625;22;20023;-77
2023/06/21 12:47:32;;;;;;;4.32;3.83;;;35.20;59.30;;;;;;6223616;22;20091;-77
2023/06/21 12:49:59;;;;;;;4.60;4.20;;;35.20;57.70;;;;;;6274592;22;20008;-76
2023/06/21 12:52:26;;;;;;;5.00;4.05;;;35.30;56.40;;;;;;6274165;22;20069;-76
2023/06/21 12:54:56;;;;;;;4.30;3.90;;;35.30;55.20;;;;;;6222840;22;20440;-76
2023/06/21 12:57:31;;;;;;;5.03;4.00;;;35.40;55.70;;;;;;6273341;22;20432;-75
2023/06/21 12:59:57;;;;;;;4.22;3.03;;;35.50;55.80;;;;;;6273391;22;20004;-76
2023/06/21 13:02:26;;;;;;;3.33;3.03;;;35.70;56.90;;;;;;6274274;22;20019;-76